aviador You're here:

KPRO Decoded Metar

PERRY MUNI in IA, USA
Report Time2017-06-27 05:15:00
UTC Time2017-06-27 05:25:08
Flight Rules vfr VFR
WindCalm
Visibility9999 m
Phenomena:N/A
Clouds:N/A
Expected CloudBase > 1,600 ft AGL from Temp-Dew spread
CeilingNone
Temp13°C (ISA -0)
Dew Point09°C (77% RH)
AAT12.8°C
QNH1021 hPa
Density Alt899 ft
Elevation1,010 ft
Report Wrong Elevation
Raw Report
METAR KPRO 270515Z AUTO 00000KT 10SM CLR 13/09 A3016 RMK AO2 T01260093=

Extra information for KPRO:More info

Metar Taf Metar & Taf Last 4 Metars F.Rules Stats Wind Profile Meteogram Temp Stats Airport Information Weather charts Add Link Nearby VenuesMetar ALERT Operation Metar Decoded Social comments

AIRNAV info for KPRO